createdAt,value
2017-09-01T00:01:26.748Z,5.73
2017-09-01T00:03:53.955Z,4.70
2017-09-01T00:06:21.171Z,4.93
2017-09-01T00:08:48.773Z,4.80
2017-09-01T00:11:15.596Z,5.80
2017-09-01T00:13:42.444Z,5.93
2017-09-01T00:16:09.279Z,4.57
2017-09-01T00:18:37.775Z,6.50
2017-09-01T00:21:07.185Z,4.20
2017-09-01T00:23:34.057Z,4.40
2017-09-01T00:26:00.875Z,4.73
2017-09-01T00:28:28.498Z,5.20
2017-09-01T00:30:55.884Z,7.93
2017-09-01T00:33:23.840Z,4.97
2017-09-01T00:35:50.685Z,4.90
2017-09-01T00:38:19.408Z,9.43
2017-09-01T00:40:47.389Z,6.90
2017-09-01T00:43:15.008Z,3.93
2017-09-01T00:45:41.888Z,7.93
2017-09-01T00:48:08.707Z,4.57
2017-09-01T00:50:35.948Z,5.47
2017-09-01T00:53:05.940Z,4.90
2017-09-01T00:55:34.421Z,6.50
2017-09-01T00:58:02.156Z,5.73
2017-09-01T01:00:29.384Z,4.37
2017-09-01T01:02:56.228Z,5.13
2017-09-01T01:05:23.456Z,5.07
2017-09-01T01:10:36.114Z,6.63
2017-09-01T01:13:03.730Z,6.00
2017-09-01T01:15:30.944Z,4.57
2017-09-01T01:17:58.905Z,4.27
2017-09-01T01:20:25.758Z,4.80
2017-09-01T01:22:52.988Z,8.40
2017-09-01T01:25:21.338Z,5.20
2017-09-01T01:27:48.160Z,5.03
2017-09-01T01:30:14.996Z,7.00
2017-09-01T01:32:41.821Z,9.23
2017-09-01T01:35:08.685Z,5.10
2017-09-01T01:40:25.461Z,6.97
2017-09-01T01:42:52.289Z,5.27
2017-09-01T01:45:19.613Z,5.40
2017-09-01T01:47:46.433Z,6.30
2017-09-01T01:50:14.446Z,7.00
2017-09-01T01:52:41.275Z,6.70
2017-09-01T01:55:08.864Z,5.87
2017-09-01T01:57:37.221Z,5.50
2017-09-01T02:00:04.036Z,4.90
2017-09-01T02:02:31.256Z,5.30
2017-09-01T02:04:58.533Z,6.47
2017-09-01T02:07:25.747Z,5.20
2017-09-01T02:09:53.200Z,7.10
2017-09-01T02:12:21.181Z,11.83
2017-09-01T02:14:49.161Z,5.87
2017-09-01T02:17:16.405Z,6.50
2017-09-01T02:19:43.642Z,5.97
2017-09-01T02:22:11.549Z,5.10
2017-09-01T02:24:39.140Z,10.23
2017-09-01T02:27:06.728Z,4.57
2017-09-01T02:29:33.956Z,4.80
2017-09-01T02:32:00.828Z,6.10
2017-09-01T02:34:28.069Z,6.07
2017-09-01T02:36:54.897Z,4.30
2017-09-01T02:39:21.724Z,5.63
2017-09-01T02:41:49.802Z,6.53
2017-09-01T02:44:17.800Z,6.90
2017-09-01T02:46:45.219Z,5.80
2017-09-01T02:49:13.093Z,7.13
2017-09-01T02:51:40.303Z,6.77
2017-09-01T02:54:07.792Z,6.10
2017-09-01T02:56:35.392Z,4.63
2017-09-01T02:59:02.998Z,4.77
2017-09-01T03:01:29.816Z,4.73
2017-09-01T03:03:58.293Z,5.40
2017-09-01T03:06:25.532Z,4.83
2017-09-01T03:08:52.373Z,4.37
2017-09-01T03:11:19.233Z,5.20
2017-09-01T03:13:47.512Z,5.40
2017-09-01T03:16:14.745Z,4.37
2017-09-01T03:18:41.584Z,6.83
2017-09-01T03:21:09.541Z,5.73
2017-09-01T03:23:37.128Z,5.50
2017-09-01T03:26:04.348Z,7.57
2017-09-01T03:28:31.181Z,7.90
2017-09-01T03:30:59.189Z,5.30
2017-09-01T03:33:26.012Z,4.73
2017-09-01T03:35:53.223Z,5.80
2017-09-01T03:38:20.474Z,11.67
2017-09-01T03:40:48.064Z,10.20
2017-09-01T03:43:15.340Z,7.83
2017-09-01T03:45:42.166Z,8.47
2017-09-01T03:48:09.015Z,6.30
2017-09-01T03:50:35.837Z,5.70
2017-09-01T03:53:02.656Z,6.60
2017-09-01T03:55:29.476Z,6.10
2017-09-01T03:57:56.292Z,5.70
2017-09-01T04:00:23.333Z,4.43
2017-09-01T04:02:50.557Z,4.63
2017-09-01T04:05:17.394Z,7.03
2017-09-01T04:07:44.226Z,5.40
2017-09-01T04:10:11.076Z,4.40
2017-09-01T04:12:37.913Z,7.20
2017-09-01T04:15:04.788Z,6.97
2017-09-01T04:17:31.613Z,4.90
2017-09-01T04:19:58.444Z,5.40
2017-09-01T04:22:25.277Z,7.40
2017-09-01T04:24:52.127Z,5.83
2017-09-01T04:27:18.949Z,5.03
2017-09-01T04:29:45.776Z,4.97
2017-09-01T04:32:13.375Z,6.20
2017-09-01T04:34:40.224Z,7.17
2017-09-01T04:37:07.768Z,4.93
2017-09-01T04:39:34.997Z,4.90
2017-09-01T04:42:03.798Z,5.40
2017-09-01T04:44:31.288Z,5.57
2017-09-01T04:46:58.192Z,4.57
2017-09-01T04:49:26.148Z,6.57
2017-09-01T04:51:52.989Z,7.00
2017-09-01T04:54:20.948Z,4.40
2017-09-01T04:56:47.770Z,7.23
2017-09-01T04:59:14.599Z,7.00
2017-09-01T05:01:41.846Z,6.80
2017-09-01T05:04:09.056Z,6.10
2017-09-01T05:06:35.876Z,5.90
2017-09-01T05:09:03.424Z,6.23
2017-09-01T05:11:30.652Z,6.70
2017-09-01T05:13:57.912Z,7.70
2017-09-01T05:16:25.153Z,7.63
2017-09-01T05:18:52.399Z,7.37
2017-09-01T05:21:19.630Z,6.87
2017-09-01T05:23:46.858Z,10.43
2017-09-01T05:26:13.700Z,8.60
2017-09-01T05:28:40.532Z,5.77
2017-09-01T05:31:07.356Z,6.63
2017-09-01T05:33:34.301Z,6.20
2017-09-01T05:36:01.609Z,5.93
2017-09-01T05:38:28.453Z,8.20
2017-09-01T05:40:55.293Z,9.67
2017-09-01T05:43:22.126Z,5.73
2017-09-01T05:45:49.000Z,7.20
2017-09-01T05:48:15.829Z,5.90
2017-09-01T05:50:42.706Z,7.50
2017-09-01T05:53:10.292Z,6.37
2017-09-01T05:55:37.896Z,9.03
2017-09-01T05:58:05.909Z,7.53
2017-09-01T06:00:32.768Z,4.17
2017-09-01T06:03:00.772Z,5.37
2017-09-01T06:05:27.609Z,6.83
2017-09-01T06:10:40.776Z,5.60
2017-09-01T06:13:08.418Z,7.10
2017-09-01T06:15:35.284Z,9.80
2017-09-01T06:18:02.884Z,7.57
2017-09-01T06:20:30.472Z,8.40
2017-09-01T06:22:57.707Z,7.13
2017-09-01T06:25:24.547Z,6.60
2017-09-01T06:27:52.153Z,8.87
2017-09-01T06:30:19.376Z,6.80
2017-09-01T06:32:46.589Z,6.67
2017-09-01T06:35:13.459Z,6.80
2017-09-01T06:37:40.680Z,7.93
2017-09-01T06:40:08.317Z,6.10
2017-09-01T06:42:35.593Z,11.13
2017-09-01T06:45:02.809Z,7.87
2017-09-01T06:47:29.641Z,7.47
2017-09-01T06:49:58.099Z,6.30
2017-09-01T06:52:24.927Z,5.33
2017-09-01T06:54:52.856Z,7.50
2017-09-01T06:57:20.076Z,8.10
2017-09-01T06:59:46.896Z,6.70
2017-09-01T07:02:13.736Z,6.17
2017-09-01T07:04:41.696Z,6.03
2017-09-01T07:07:08.937Z,7.03
2017-09-01T07:12:24.184Z,6.77
2017-09-01T07:14:51.012Z,8.00
2017-09-01T07:17:18.628Z,5.70
2017-09-01T07:19:45.457Z,8.37
2017-09-01T07:22:12.710Z,6.00
2017-09-01T07:24:39.932Z,5.83
2017-09-01T07:27:06.752Z,6.43
2017-09-01T07:29:34.712Z,7.17
2017-09-01T07:32:01.936Z,6.67
2017-09-01T07:34:30.299Z,6.90
2017-09-01T07:36:58.300Z,5.33
2017-09-01T07:39:25.148Z,7.30
2017-09-01T07:41:53.535Z,5.67
2017-09-01T07:44:22.105Z,5.63
2017-09-01T07:46:48.936Z,7.30
2017-09-01T07:49:17.062Z,5.37
2017-09-01T07:51:44.336Z,8.73
2017-09-01T07:54:12.800Z,6.57
2017-09-01T07:56:39.620Z,5.80
2017-09-01T07:59:07.208Z,7.50
2017-09-01T08:01:34.803Z,7.47
2017-09-01T08:04:02.388Z,5.90
2017-09-01T08:06:29.978Z,7.70
2017-09-01T08:08:56.816Z,7.23
2017-09-01T08:11:25.306Z,6.90
2017-09-01T08:13:52.525Z,6.10
2017-09-01T08:16:19.373Z,5.50
2017-09-01T08:18:46.597Z,7.50
2017-09-01T08:21:13.448Z,8.33
2017-09-01T08:23:40.667Z,6.83
2017-09-01T08:26:08.650Z,7.80
2017-09-01T08:28:35.889Z,5.57
2017-09-01T08:31:04.083Z,8.30
2017-09-01T08:33:31.312Z,7.57
2017-09-01T08:35:58.196Z,6.17
2017-09-01T08:38:25.421Z,12.10
2017-09-01T08:40:52.664Z,5.63
2017-09-01T08:43:19.894Z,6.97
2017-09-01T08:45:46.724Z,4.33
2017-09-01T08:48:13.936Z,5.27
2017-09-01T08:50:40.780Z,4.93
2017-09-01T08:53:08.142Z,5.70
2017-09-01T08:55:34.972Z,6.80
2017-09-01T08:58:02.628Z,5.90
2017-09-01T09:00:29.460Z,5.30
2017-09-01T09:02:56.315Z,6.07
2017-09-01T09:05:23.917Z,6.00
2017-09-01T09:10:41.440Z,5.50
2017-09-01T09:13:09.389Z,5.50
2017-09-01T09:15:36.205Z,5.00
2017-09-01T09:18:03.424Z,10.33
2017-09-01T09:20:31.037Z,8.80
2017-09-01T09:22:57.862Z,5.87
2017-09-01T09:25:25.124Z,5.60
2017-09-01T09:27:51.985Z,5.80
2017-09-01T09:30:19.964Z,7.83
2017-09-01T09:32:47.185Z,6.53
2017-09-01T09:35:14.041Z,6.13
2017-09-01T09:40:31.900Z,7.47
2017-09-01T09:42:58.743Z,5.13
2017-09-01T09:45:25.580Z,5.57
2017-09-01T09:47:52.796Z,6.83
2017-09-01T09:50:20.400Z,5.40
2017-09-01T09:52:47.219Z,9.57
2017-09-01T09:55:14.049Z,8.50
2017-09-01T09:57:40.890Z,6.43
2017-09-01T10:00:07.740Z,6.90
2017-09-01T10:02:34.594Z,6.10
2017-09-01T10:05:02.608Z,4.50
2017-09-01T10:07:29.464Z,9.73
2017-09-01T10:09:57.609Z,8.93
2017-09-01T10:12:24.880Z,7.13
2017-09-01T10:14:51.703Z,6.20
2017-09-01T10:17:18.929Z,6.87
2017-09-01T10:19:45.785Z,5.93
2017-09-01T10:22:12.652Z,5.43
2017-09-01T10:24:39.505Z,6.20
2017-09-01T10:27:06.340Z,7.97
2017-09-01T10:29:33.216Z,5.57
2017-09-01T10:32:01.547Z,4.53
2017-09-01T10:34:28.803Z,6.27
2017-09-01T10:36:55.661Z,6.53
2017-09-01T10:39:23.311Z,4.43
2017-09-01T10:41:50.873Z,7.17
2017-09-01T10:44:17.713Z,4.00
2017-09-01T10:46:45.128Z,5.47
2017-09-01T10:49:13.099Z,5.90
2017-09-01T10:51:39.940Z,4.63
2017-09-01T10:54:06.775Z,6.40
2017-09-01T10:56:33.623Z,6.90
2017-09-01T10:59:01.589Z,7.97
2017-09-01T11:01:28.441Z,8.27
2017-09-01T11:03:55.284Z,6.33
2017-09-01T11:06:22.188Z,10.07
2017-09-01T11:08:49.008Z,5.10
2017-09-01T11:11:16.617Z,5.73
2017-09-01T11:13:43.432Z,4.57
2017-09-01T11:16:10.903Z,4.63
2017-09-01T11:18:46.629Z,4.17
2017-09-01T11:21:19.989Z,4.03
2017-09-01T11:23:52.364Z,4.33
2017-09-01T11:26:19.181Z,4.67
2017-09-01T11:28:46.004Z,4.13
2017-09-01T11:31:12.821Z,3.83
2017-09-01T11:33:43.525Z,3.97
2017-09-01T11:36:10.952Z,3.97
2017-09-01T11:38:37.797Z,8.93
2017-09-01T11:41:04.640Z,3.80
2017-09-01T11:43:31.508Z,3.80
2017-09-01T11:45:58.320Z,4.30
2017-09-01T11:48:25.137Z,4.00
2017-09-01T11:50:51.964Z,4.37
2017-09-01T11:53:18.780Z,3.97
2017-09-01T11:55:45.620Z,3.90
2017-09-01T11:58:12.434Z,4.23
2017-09-01T12:00:39.643Z,3.50
2017-09-01T12:03:06.460Z,5.37
2017-09-01T12:05:33.304Z,3.90
2017-09-01T12:08:00.120Z,3.67
2017-09-01T12:10:26.993Z,4.80
2017-09-01T12:12:53.814Z,3.83
2017-09-01T12:15:20.644Z,4.57
2017-09-01T12:17:47.477Z,4.00
2017-09-01T12:20:14.633Z,4.47
2017-09-01T12:22:41.476Z,4.90
2017-09-01T12:25:08.292Z,4.57
2017-09-01T12:27:35.133Z,4.23
2017-09-01T12:32:39.477Z,5.23
2017-09-01T12:35:06.321Z,6.03
2017-09-01T12:37:33.164Z,4.57
2017-09-01T12:40:00.542Z,5.43
2017-09-01T12:42:27.362Z,4.63
2017-09-01T12:44:54.179Z,5.80
2017-09-01T12:47:21.388Z,5.97
2017-09-01T12:49:48.429Z,8.67
2017-09-01T12:52:15.644Z,7.00
2017-09-01T12:54:42.467Z,5.87
2017-09-01T12:57:09.296Z,7.20
2017-09-01T12:59:36.561Z,5.40
2017-09-01T13:02:04.484Z,4.37
2017-09-01T13:04:32.565Z,5.40
2017-09-01T13:06:59.976Z,4.93
2017-09-01T13:09:27.528Z,5.23
2017-09-01T13:11:54.348Z,6.20
2017-09-01T13:14:21.648Z,5.27
2017-09-01T13:16:48.460Z,5.67
2017-09-01T13:19:15.280Z,5.10
2017-09-01T13:21:42.144Z,4.90
2017-09-01T13:24:08.964Z,5.30
2017-09-01T13:26:35.812Z,5.47
2017-09-01T13:29:02.634Z,4.90
2017-09-01T13:31:29.504Z,5.10
2017-09-01T13:33:56.725Z,5.70
2017-09-01T13:36:23.980Z,6.73
2017-09-01T13:38:50.796Z,6.53
2017-09-01T13:41:17.668Z,5.03
2017-09-01T13:43:44.525Z,5.40
2017-09-01T13:46:11.340Z,5.33
2017-09-01T13:48:38.165Z,5.47
2017-09-01T13:51:05.116Z,5.37
2017-09-01T13:53:31.936Z,4.30
2017-09-01T13:55:58.847Z,5.30
2017-09-01T13:58:25.659Z,4.53
2017-09-01T14:00:52.528Z,5.00
2017-09-01T14:03:19.348Z,5.73
2017-09-01T14:05:46.217Z,5.63
2017-09-01T14:13:15.392Z,7.00
2017-09-01T14:15:42.213Z,10.83
2017-09-01T14:18:10.088Z,6.40
2017-09-01T14:20:37.638Z,8.57
2017-09-01T14:23:05.921Z,6.67
2017-09-01T14:25:37.297Z,8.07
2017-09-01T14:28:05.332Z,16.60
2017-09-01T14:30:32.536Z,9.97
2017-09-01T14:33:00.036Z,5.83
2017-09-01T14:35:26.856Z,6.43
2017-09-01T14:37:54.520Z,6.67
2017-09-01T14:40:21.333Z,5.97
2017-09-01T14:42:49.500Z,5.40
2017-09-01T14:45:17.451Z,15.90
2017-09-01T14:47:44.276Z,6.73
2017-09-01T14:50:11.540Z,5.60
2017-09-01T14:52:38.757Z,8.80
2017-09-01T14:55:05.586Z,7.40
2017-09-01T14:57:32.852Z,10.30
2017-09-01T15:00:00.845Z,17.63
2017-09-01T15:02:28.466Z,9.93
2017-09-01T15:04:55.676Z,9.00
2017-09-01T15:07:22.511Z,5.43
2017-09-01T15:09:49.719Z,6.20
2017-09-01T15:12:16.940Z,5.97
2017-09-01T15:14:45.456Z,6.60
2017-09-01T15:17:12.288Z,5.40
2017-09-01T15:19:39.108Z,6.43
2017-09-01T15:22:06.904Z,6.97
2017-09-01T15:24:34.976Z,7.30
2017-09-01T15:27:02.212Z,6.53
2017-09-01T15:29:29.056Z,5.30
2017-09-01T15:31:56.278Z,9.30
2017-09-01T15:34:23.488Z,6.43
2017-09-01T15:36:51.081Z,6.70
2017-09-01T15:39:18.676Z,5.43
2017-09-01T15:41:45.496Z,10.40
2017-09-01T15:44:12.749Z,6.07
2017-09-01T15:46:39.571Z,5.80
2017-09-01T15:49:07.077Z,6.67
2017-09-01T15:51:33.894Z,7.67
2017-09-01T15:54:00.760Z,5.00
2017-09-01T15:56:29.652Z,6.80
2017-09-01T15:58:56.463Z,4.67
2017-09-01T16:01:23.694Z,6.67
2017-09-01T16:03:50.512Z,5.70
2017-09-01T16:06:17.752Z,5.00
2017-09-01T16:08:44.988Z,6.93
2017-09-01T16:11:11.813Z,6.00
2017-09-01T16:13:38.633Z,9.87
2017-09-01T16:16:05.966Z,5.30
2017-09-01T16:18:32.813Z,5.80
2017-09-01T16:20:59.629Z,5.30
2017-09-01T16:23:26.453Z,5.13
2017-09-01T16:25:53.293Z,4.80
2017-09-01T16:28:20.876Z,6.20
2017-09-01T16:30:47.710Z,4.60
2017-09-01T16:33:15.180Z,6.63
2017-09-01T16:35:42.006Z,8.20
2017-09-01T16:38:08.844Z,7.07
2017-09-01T16:40:36.060Z,4.33
2017-09-01T16:43:03.146Z,5.20
2017-09-01T16:45:29.973Z,5.40
2017-09-01T16:47:56.798Z,4.00
2017-09-01T16:50:23.642Z,5.40
2017-09-01T16:52:50.940Z,4.30
2017-09-01T16:55:18.156Z,5.43
2017-09-01T16:57:44.976Z,5.73
2017-09-01T17:00:13.048Z,5.00
2017-09-01T17:02:40.644Z,5.63
2017-09-01T17:05:07.464Z,8.27
2017-09-01T17:10:24.401Z,5.63
2017-09-01T17:12:51.616Z,6.00
2017-09-01T17:15:18.856Z,7.43
2017-09-01T17:17:45.676Z,5.03
2017-09-01T17:20:14.148Z,7.47
2017-09-01T17:22:42.632Z,6.57
2017-09-01T17:25:09.501Z,6.00
2017-09-01T17:27:36.936Z,7.60
2017-09-01T17:30:04.941Z,5.10
2017-09-01T17:32:31.820Z,4.87
2017-09-01T17:35:01.057Z,4.07
2017-09-01T17:40:16.468Z,5.03
2017-09-01T17:42:43.319Z,4.83
2017-09-01T17:45:10.556Z,9.30
2017-09-01T17:47:38.536Z,5.77
2017-09-01T17:50:06.481Z,6.63
2017-09-01T17:52:34.477Z,5.47
2017-09-01T17:55:01.332Z,12.80
2017-09-01T17:57:28.153Z,9.80
2017-09-01T17:59:54.984Z,9.67
2017-09-01T18:02:21.812Z,5.73
2017-09-01T18:04:48.640Z,7.20
2017-09-01T18:07:19.549Z,8.23
2017-09-01T18:09:46.413Z,6.17
2017-09-01T18:12:13.253Z,7.30
2017-09-01T18:14:40.408Z,7.70
2017-09-01T18:17:07.293Z,8.00
2017-09-01T18:19:34.325Z,5.90
2017-09-01T18:22:01.180Z,6.50
2017-09-01T18:24:28.001Z,6.70
2017-09-01T18:26:55.588Z,7.70
2017-09-01T18:29:23.712Z,9.63
2017-09-01T18:31:51.936Z,9.57
2017-09-01T18:34:19.016Z,9.27
2017-09-01T18:36:52.244Z,10.27
2017-09-01T18:39:19.870Z,10.40
2017-09-01T18:41:46.703Z,7.97
2017-09-01T18:44:14.332Z,8.83
2017-09-01T18:46:44.417Z,9.33
2017-09-01T18:49:12.421Z,12.90
2017-09-01T18:51:40.041Z,6.33
2017-09-01T18:54:08.313Z,9.80
2017-09-01T18:56:36.809Z,9.80
2017-09-01T18:59:03.660Z,9.13
2017-09-01T19:01:30.500Z,6.70
2017-09-01T19:03:58.085Z,9.60
2017-09-01T19:06:26.075Z,6.10
2017-09-01T19:08:53.313Z,10.60
2017-09-01T19:11:20.841Z,10.93
2017-09-01T19:13:48.140Z,7.27
2017-09-01T19:16:15.385Z,8.60
2017-09-01T19:18:42.898Z,9.43
2017-09-01T19:21:10.553Z,12.67
2017-09-01T19:23:37.368Z,8.57
2017-09-01T19:26:04.583Z,6.93
2017-09-01T19:28:31.813Z,6.10
2017-09-01T19:31:00.316Z,9.70
2017-09-01T19:33:27.145Z,12.60
2017-09-01T19:35:53.997Z,11.20
2017-09-01T19:41:01.925Z,8.00
2017-09-01T19:43:29.172Z,10.10
2017-09-01T19:45:56.792Z,10.37
2017-09-01T19:48:23.635Z,8.83
2017-09-01T19:50:50.470Z,8.20
2017-09-01T19:53:18.388Z,15.93
2017-09-01T19:55:45.216Z,9.67
2017-09-01T19:58:12.102Z,9.47
2017-09-01T20:00:39.332Z,8.97
2017-09-01T20:03:06.868Z,13.93
2017-09-01T20:05:34.092Z,8.90
2017-09-01T20:08:02.053Z,7.77
2017-09-01T20:10:30.417Z,13.43
2017-09-01T20:12:57.241Z,9.50
2017-09-01T20:15:24.700Z,9.00
2017-09-01T20:17:52.020Z,11.00
2017-09-01T20:20:19.633Z,10.30
2017-09-01T20:22:46.453Z,10.57
2017-09-01T20:25:13.320Z,11.53
2017-09-01T20:27:40.356Z,12.17
2017-09-01T20:30:07.215Z,13.37
2017-09-01T20:32:34.083Z,9.70
2017-09-01T20:35:01.300Z,15.47
2017-09-01T20:37:28.180Z,13.03
2017-09-01T20:39:55.573Z,11.60
2017-09-01T20:42:23.952Z,9.43
2017-09-01T20:44:51.176Z,11.20
2017-09-01T20:47:17.987Z,9.50
2017-09-01T20:49:44.828Z,11.57
2017-09-01T20:52:11.648Z,10.93
2017-09-01T20:54:38.473Z,10.50
2017-09-01T20:57:05.711Z,13.43
2017-09-01T20:59:33.697Z,14.93
2017-09-01T21:02:00.925Z,12.80
2017-09-01T21:04:27.766Z,8.80
2017-09-01T21:06:55.372Z,11.60
2017-09-01T21:09:23.385Z,10.57
2017-09-01T21:11:51.850Z,12.20
2017-09-01T21:14:19.449Z,11.33
2017-09-01T21:16:46.276Z,9.60
2017-09-01T21:19:14.747Z,13.10
2017-09-01T21:21:41.573Z,9.13
2017-09-01T21:24:08.396Z,12.30
2017-09-01T21:26:35.216Z,7.57
2017-09-01T21:29:02.440Z,10.93
2017-09-01T21:31:30.008Z,11.80
2017-09-01T21:33:57.945Z,15.00
2017-09-01T21:36:24.829Z,13.30
2017-09-01T21:38:51.713Z,16.57
2017-09-01T21:41:19.320Z,13.40
2017-09-01T21:43:46.777Z,12.10
2017-09-01T21:46:14.021Z,13.97
2017-09-01T21:48:40.924Z,14.97
2017-09-01T21:51:08.153Z,14.87
2017-09-01T21:53:35.758Z,15.37
2017-09-01T21:56:02.985Z,9.83
2017-09-01T21:58:30.236Z,12.10
2017-09-01T22:00:57.456Z,13.93
2017-09-01T22:03:24.281Z,18.40
2017-09-01T22:05:51.108Z,14.23
2017-09-01T22:11:03.240Z,14.27
2017-09-01T22:13:30.836Z,14.40
2017-09-01T22:15:58.388Z,13.17
2017-09-01T22:18:25.224Z,16.63
2017-09-01T22:20:52.076Z,15.93
2017-09-01T22:23:18.904Z,17.23
2017-09-01T22:25:46.857Z,18.83
2017-09-01T22:28:13.708Z,19.60
2017-09-01T22:30:40.553Z,13.10
2017-09-01T22:33:08.153Z,14.40
2017-09-01T22:35:35.748Z,18.90
2017-09-01T22:40:52.415Z,12.60
2017-09-01T22:43:19.258Z,17.10
2017-09-01T22:45:46.093Z,12.33
2017-09-01T22:48:12.960Z,13.90
2017-09-01T22:50:40.154Z,18.00
2017-09-01T22:53:07.382Z,13.50
2017-09-01T22:55:34.208Z,13.47
2017-09-01T22:58:01.038Z,19.67
2017-09-01T23:00:28.657Z,10.57
2017-09-01T23:02:55.964Z,16.03
2017-09-01T23:05:23.568Z,18.83
2017-09-01T23:10:39.753Z,17.40
2017-09-01T23:13:06.988Z,13.93
2017-09-01T23:15:33.841Z,14.93
2017-09-01T23:18:01.436Z,10.10
2017-09-01T23:20:28.298Z,15.27
2017-09-01T23:22:55.517Z,11.13
2017-09-01T23:25:23.852Z,15.30
2017-09-01T23:27:51.476Z,16.30
2017-09-01T23:30:19.166Z,13.80
2017-09-01T23:32:47.716Z,13.80
2017-09-01T23:35:16.191Z,14.90
2017-09-01T23:40:34.340Z,10.60
2017-09-01T23:43:01.158Z,12.73
2017-09-01T23:45:28.376Z,13.93
2017-09-01T23:47:55.600Z,11.03
2017-09-01T23:50:23.224Z,11.53
2017-09-01T23:52:50.574Z,9.70
2017-09-01T23:55:18.172Z,9.30
2017-09-01T23:57:45.396Z,13.27
